createdAt,value
2023-02-24T00:02:04.499Z,35.60
2023-02-24T00:04:34.649Z,32.13
2023-02-24T00:07:02.579Z,35.45
2023-02-24T00:09:31.617Z,37.33
2023-02-24T00:12:04.096Z,35.72
2023-02-24T00:14:33.333Z,31.98
2023-02-24T00:17:00.658Z,33.60
2023-02-24T00:19:32.558Z,32.80
2023-02-24T00:22:00.086Z,34.88
2023-02-24T00:24:27.695Z,42.88
2023-02-24T00:26:56.506Z,32.40
2023-02-24T00:29:24.312Z,38.35
2023-02-24T00:31:56.819Z,36.90
2023-02-24T00:34:24.017Z,31.60
2023-02-24T00:36:50.903Z,37.08
2023-02-24T00:39:17.719Z,32.60
2023-02-24T00:41:45.262Z,46.83
2023-02-24T00:44:14.559Z,35.40
2023-02-24T00:46:47.001Z,41.10
2023-02-24T00:49:18.570Z,34.55
2023-02-24T00:51:48.747Z,36.10
2023-02-24T00:54:17.744Z,35.58
2023-02-24T00:56:46.149Z,32.55
2023-02-24T00:59:15.007Z,37.53
2023-02-24T01:01:44.961Z,36.17
2023-02-24T01:04:13.805Z,35.65
2023-02-24T01:06:43.570Z,42.97
2023-02-24T01:09:12.624Z,38.83
2023-02-24T01:11:58.487Z,41.55
2023-02-24T01:14:29.213Z,39.03
2023-02-24T01:16:56.800Z,40.47
2023-02-24T01:19:31.569Z,38.78
2023-02-24T01:22:01.220Z,43.00
2023-02-24T01:24:33.555Z,35.80
2023-02-24T01:27:00.447Z,44.35
2023-02-24T01:29:27.560Z,36.03
2023-02-24T01:31:57.998Z,43.83
2023-02-24T01:34:28.660Z,35.13
2023-02-24T01:36:55.496Z,34.33
2023-02-24T01:39:22.303Z,34.58
2023-02-24T01:41:53.003Z,46.22
2023-02-24T01:44:22.863Z,37.40
2023-02-24T01:46:52.625Z,38.20
2023-02-24T01:49:46.531Z,33.03
2023-02-24T01:52:30.534Z,42.50
2023-02-24T01:55:03.064Z,39.55
2023-02-24T01:57:33.196Z,34.03
2023-02-24T02:00:10.317Z,34.33
2023-02-24T02:02:43.519Z,42.30
2023-02-24T02:05:11.576Z,38.25
2023-02-24T02:07:40.925Z,35.08
2023-02-24T02:10:09.510Z,37.70
2023-02-24T02:12:44.593Z,35.78
2023-02-24T02:15:20.223Z,40.30
2023-02-24T02:17:59.401Z,39.08
2023-02-24T02:20:42.778Z,34.42
2023-02-24T02:23:21.772Z,37.70
2023-02-24T02:26:07.294Z,48.63
2023-02-24T02:29:06.224Z,34.72
2023-02-24T02:32:17.798Z,38.60
2023-02-24T02:35:09.188Z,33.90
2023-02-24T02:38:12.166Z,52.05
2023-02-24T02:41:07.216Z,36.67
2023-02-24T02:44:03.313Z,32.38
2023-02-24T02:46:37.269Z,36.30
2023-02-24T02:49:30.450Z,37.25
2023-02-24T02:52:05.768Z,47.30
2023-02-24T02:54:45.399Z,39.80
2023-02-24T02:57:25.456Z,32.85
2023-02-24T03:00:00.744Z,38.00
2023-02-24T03:02:38.312Z,35.25
2023-02-24T03:05:09.931Z,37.40
2023-02-24T03:07:42.771Z,40.47
2023-02-24T03:10:17.778Z,30.95
2023-02-24T03:12:47.748Z,31.13
2023-02-24T03:15:16.127Z,34.97
2023-02-24T03:17:46.201Z,35.28
2023-02-24T03:20:22.540Z,40.95
2023-02-24T03:23:18.601Z,42.08
2023-02-24T03:25:54.442Z,38.08
2023-02-24T03:28:45.566Z,35.30
2023-02-24T03:31:46.128Z,40.90
2023-02-24T03:34:20.391Z,36.50
2023-02-24T03:36:48.132Z,38.20
2023-02-24T03:39:15.846Z,48.22
2023-02-24T03:41:57.395Z,42.35
2023-02-24T03:44:25.052Z,41.65
2023-02-24T03:46:55.024Z,42.45
2023-02-24T03:49:25.320Z,42.80
2023-02-24T03:52:13.972Z,43.20
2023-02-24T03:55:21.382Z,43.33
2023-02-24T03:58:12.791Z,38.25
2023-02-24T04:00:51.293Z,38.67
2023-02-24T04:03:42.963Z,40.22
2023-02-24T04:06:25.636Z,34.05
2023-02-24T04:09:03.513Z,39.00
2023-02-24T04:11:46.682Z,45.88
2023-02-24T04:14:33.313Z,40.60
2023-02-24T04:17:14.147Z,45.40
2023-02-24T04:19:43.734Z,42.00
2023-02-24T04:22:14.105Z,42.30
2023-02-24T04:24:43.469Z,49.70
2023-02-24T04:27:12.197Z,49.83
2023-02-24T04:29:47.252Z,42.83
2023-02-24T04:32:17.888Z,46.30
2023-02-24T04:34:45.589Z,45.05
2023-02-24T04:37:12.414Z,49.10
2023-02-24T04:39:39.233Z,45.55
2023-02-24T04:42:06.792Z,50.50
2023-02-24T04:44:33.950Z,43.05
2023-02-24T04:47:00.826Z,48.03
2023-02-24T04:49:27.720Z,48.95
2023-02-24T04:51:57.143Z,43.10
2023-02-24T04:54:24.406Z,49.15
2023-02-24T04:56:52.113Z,55.22
2023-02-24T04:59:20.177Z,49.33
2023-02-24T05:01:51.684Z,46.28
2023-02-24T05:04:19.308Z,52.28
2023-02-24T05:06:46.785Z,54.70
2023-02-24T05:09:18.134Z,42.72
2023-02-24T05:11:49.360Z,51.20
2023-02-24T05:14:20.705Z,51.45
2023-02-24T05:16:49.068Z,42.93
2023-02-24T05:19:36.781Z,50.75
2023-02-24T05:22:04.771Z,45.13
2023-02-24T05:24:31.725Z,50.22
2023-02-24T05:27:03.710Z,56.22
2023-02-24T05:29:33.360Z,63.40
2023-02-24T05:32:03.973Z,53.33
2023-02-24T05:34:32.632Z,51.67
2023-02-24T05:37:01.724Z,45.83
2023-02-24T05:39:29.266Z,55.63
2023-02-24T05:41:57.004Z,53.92
2023-02-24T05:44:26.229Z,60.17
2023-02-24T05:46:58.760Z,47.75
2023-02-24T05:49:29.559Z,47.08
2023-02-24T05:52:00.237Z,48.17
2023-02-24T05:54:32.698Z,58.72
2023-02-24T05:57:05.383Z,57.33
2023-02-24T05:59:33.212Z,60.25
2023-02-24T06:02:07.044Z,47.75
2023-02-24T06:04:40.729Z,55.72
2023-02-24T06:07:21.053Z,54.60
2023-02-24T06:09:56.626Z,49.03
2023-02-24T06:12:26.753Z,62.53
2023-02-24T06:14:54.042Z,55.10
2023-02-24T06:17:21.695Z,55.42
2023-02-24T06:19:50.971Z,56.45
2023-02-24T06:22:21.493Z,59.83
2023-02-24T06:24:49.394Z,56.47
2023-02-24T06:27:19.270Z,52.05
2023-02-24T06:29:51.156Z,56.60
2023-02-24T06:32:24.072Z,46.78
2023-02-24T06:34:51.822Z,55.53
2023-02-24T06:37:18.843Z,64.75
2023-02-24T06:39:46.151Z,52.97
2023-02-24T06:42:13.883Z,50.25
2023-02-24T06:44:41.243Z,50.30
2023-02-24T06:47:11.455Z,49.85
2023-02-24T06:49:38.213Z,49.92
2023-02-24T06:52:05.962Z,53.70
2023-02-24T06:54:35.936Z,55.03
2023-02-24T06:57:04.026Z,53.22
2023-02-24T06:59:32.210Z,55.28
2023-02-24T07:02:01.990Z,50.30
2023-02-24T07:04:29.945Z,49.33
2023-02-24T07:07:03.089Z,49.22
2023-02-24T07:09:31.305Z,55.05
2023-02-24T07:11:58.875Z,49.17
2023-02-24T07:14:29.280Z,55.08
2023-02-24T07:16:58.150Z,38.65
2023-02-24T07:19:27.615Z,43.28
2023-02-24T07:22:03.450Z,45.67
2023-02-24T07:24:33.741Z,48.20
2023-02-24T07:27:07.545Z,52.33
2023-02-24T07:29:35.974Z,48.47
2023-02-24T07:32:05.687Z,46.75
2023-02-24T07:34:33.768Z,42.47
2023-02-24T07:37:06.640Z,45.15
2023-02-24T07:39:34.136Z,43.28
2023-02-24T07:42:00.934Z,45.80
2023-02-24T07:44:29.403Z,39.72
2023-02-24T07:46:59.176Z,35.72
2023-02-24T07:49:27.960Z,41.25
2023-02-24T07:51:57.816Z,41.53
2023-02-24T07:54:27.261Z,40.88
2023-02-24T07:56:57.192Z,41.75
2023-02-24T07:59:29.855Z,42.28
2023-02-24T08:01:57.541Z,39.97
2023-02-24T08:04:26.999Z,42.28
2023-02-24T08:06:56.144Z,38.45
2023-02-24T08:09:45.631Z,38.42
2023-02-24T08:12:18.006Z,46.55
2023-02-24T08:14:51.126Z,40.92
2023-02-24T08:17:20.079Z,33.13
2023-02-24T08:19:49.196Z,38.60
2023-02-24T08:22:19.914Z,37.67
2023-02-24T08:25:06.214Z,36.13
2023-02-24T08:27:39.118Z,51.20
2023-02-24T08:30:07.942Z,40.25
2023-02-24T08:32:37.795Z,35.50
2023-02-24T08:35:14.537Z,33.10
2023-02-24T08:37:47.155Z,34.78
2023-02-24T08:40:33.529Z,30.35
2023-02-24T08:43:19.393Z,34.00
2023-02-24T08:45:50.985Z,32.40
2023-02-24T08:48:26.424Z,30.25
2023-02-24T08:50:55.379Z,35.65
2023-02-24T08:53:24.928Z,25.33
2023-02-24T08:55:51.849Z,30.73
2023-02-24T08:58:19.846Z,35.40
2023-02-24T09:00:49.792Z,35.08
2023-02-24T09:03:44.941Z,33.58
2023-02-24T09:06:16.747Z,28.88
2023-02-24T09:08:45.970Z,32.45
2023-02-24T09:11:15.404Z,34.13
2023-02-24T09:13:51.990Z,35.63
2023-02-24T09:16:20.836Z,31.70
2023-02-24T09:19:07.573Z,27.67
2023-02-24T09:21:49.510Z,33.47
2023-02-24T09:24:27.144Z,32.25
2023-02-24T09:26:59.989Z,32.75
2023-02-24T09:29:49.252Z,28.55
2023-02-24T09:32:16.602Z,30.08
2023-02-24T09:34:44.615Z,26.25
2023-02-24T09:37:25.138Z,24.67
2023-02-24T09:39:56.074Z,28.70
2023-02-24T09:42:46.293Z,24.58
2023-02-24T09:45:33.471Z,26.98
2023-02-24T09:48:16.767Z,21.33
2023-02-24T09:51:02.008Z,29.23
2023-02-24T09:53:41.277Z,28.67
2023-02-24T09:56:17.085Z,25.17
2023-02-24T09:58:50.726Z,23.20
2023-02-24T10:01:36.216Z,22.33
2023-02-24T10:04:29.939Z,25.60
2023-02-24T10:07:10.265Z,22.23
2023-02-24T10:10:11.209Z,24.30
2023-02-24T10:12:40.380Z,25.80
2023-02-24T10:15:32.168Z,18.00
2023-02-24T10:18:27.285Z,20.77
2023-02-24T10:21:20.431Z,20.38
2023-02-24T10:24:14.535Z,21.55
2023-02-24T10:27:01.314Z,22.63
2023-02-24T10:30:01.270Z,20.60
2023-02-24T10:32:34.187Z,21.95
2023-02-24T10:35:01.836Z,20.52
2023-02-24T10:37:30.187Z,21.63
2023-02-24T10:40:09.782Z,20.92
2023-02-24T10:42:48.871Z,15.02
2023-02-24T10:45:27.373Z,17.05
2023-02-24T10:47:57.310Z,15.57
2023-02-24T10:50:32.950Z,18.15
2023-02-24T10:53:37.569Z,20.35
2023-02-24T10:56:27.094Z,16.05
2023-02-24T10:59:20.795Z,12.18
2023-02-24T11:01:59.559Z,11.73
2023-02-24T11:04:58.476Z,15.95
2023-02-24T11:07:33.414Z,11.75
2023-02-24T11:10:12.187Z,11.95
2023-02-24T11:13:09.249Z,11.52
2023-02-24T11:16:07.457Z,11.05
2023-02-24T11:18:35.058Z,14.43
2023-02-24T11:21:07.299Z,10.20
2023-02-24T11:23:57.555Z,10.50
2023-02-24T11:26:34.219Z,10.73
2023-02-24T11:29:23.014Z,11.38
2023-02-24T11:32:19.333Z,8.13
2023-02-24T11:35:12.525Z,6.22
2023-02-24T11:37:43.898Z,10.98
2023-02-24T11:40:23.874Z,17.10
2023-02-24T11:42:57.400Z,8.25
2023-02-24T11:45:41.819Z,6.10
2023-02-24T11:48:17.447Z,8.27
2023-02-24T11:50:50.588Z,9.55
2023-02-24T11:53:21.456Z,6.72
2023-02-24T11:55:57.061Z,5.85
2023-02-24T11:58:33.940Z,8.63
2023-02-24T12:01:14.438Z,4.72
2023-02-24T12:04:09.479Z,6.68
2023-02-24T12:06:59.334Z,5.40
2023-02-24T12:09:38.615Z,3.25
2023-02-24T12:12:14.000Z,3.72
2023-02-24T12:14:53.372Z,10.18
2023-02-24T12:17:34.781Z,3.55
2023-02-24T12:20:23.574Z,5.82
2023-02-24T12:23:00.970Z,5.43
2023-02-24T12:25:44.922Z,8.35
2023-02-24T12:28:40.754Z,5.28
2023-02-24T12:31:20.059Z,8.32
2023-02-24T12:34:11.950Z,3.53
2023-02-24T12:36:44.821Z,6.43
2023-02-24T12:39:22.578Z,8.07
2023-02-24T12:42:04.377Z,8.73
2023-02-24T12:44:38.454Z,5.82
2023-02-24T12:47:13.076Z,6.77
2023-02-24T12:50:06.904Z,7.38
2023-02-24T12:52:50.910Z,8.60
2023-02-24T12:55:38.129Z,7.13
2023-02-24T12:58:23.332Z,8.15
2023-02-24T13:01:05.283Z,8.20
2023-02-24T13:04:01.842Z,10.65
2023-02-24T13:06:43.511Z,6.70
2023-02-24T13:09:58.764Z,8.77
2023-02-24T13:12:32.858Z,9.50
2023-02-24T13:14:59.944Z,10.77
2023-02-24T13:17:27.186Z,11.18
2023-02-24T13:19:55.786Z,6.97
2023-02-24T13:22:32.782Z,6.53
2023-02-24T13:25:08.225Z,8.00
2023-02-24T13:27:44.412Z,8.55
2023-02-24T13:30:20.074Z,7.15
2023-02-24T13:32:58.466Z,11.40
2023-02-24T13:35:25.255Z,6.78
2023-02-24T13:37:53.470Z,6.35
2023-02-24T13:40:23.199Z,10.50
2023-02-24T13:43:01.549Z,10.48
2023-02-24T13:45:37.439Z,10.80
2023-02-24T13:48:21.876Z,11.15
2023-02-24T13:51:08.545Z,9.82
2023-02-24T13:54:17.391Z,14.05
2023-02-24T13:57:13.851Z,10.98
2023-02-24T13:59:40.589Z,11.27
2023-02-24T14:02:28.232Z,10.37
2023-02-24T14:04:58.397Z,11.50
2023-02-24T14:07:35.786Z,15.90
2023-02-24T14:10:19.270Z,14.20
2023-02-24T14:12:47.972Z,11.38
2023-02-24T14:15:25.796Z,14.10
2023-02-24T14:17:59.718Z,12.45
2023-02-24T14:20:28.560Z,13.13
2023-02-24T14:22:59.825Z,18.60
2023-02-24T14:25:30.014Z,11.32
2023-02-24T14:27:57.954Z,13.93
2023-02-24T14:30:37.504Z,13.02
2023-02-24T14:33:07.064Z,14.80
2023-02-24T14:35:41.851Z,11.20
2023-02-24T14:38:34.327Z,19.98
2023-02-24T14:41:04.486Z,17.23
2023-02-24T14:43:32.091Z,13.07
2023-02-24T14:46:04.094Z,13.50
2023-02-24T14:48:31.879Z,12.27
2023-02-24T14:51:06.235Z,17.08
2023-02-24T14:53:38.015Z,13.90
2023-02-24T14:56:06.385Z,18.45
2023-02-24T14:58:50.918Z,12.15
2023-02-24T15:01:42.055Z,13.52
2023-02-24T15:04:36.763Z,13.80
2023-02-24T15:07:07.529Z,16.70
2023-02-24T15:09:42.992Z,14.02
2023-02-24T15:12:20.731Z,14.45
2023-02-24T15:14:53.347Z,13.02
2023-02-24T15:17:21.404Z,19.33
2023-02-24T15:19:54.429Z,19.48
2023-02-24T15:22:22.882Z,14.63
2023-02-24T15:24:51.303Z,28.88
2023-02-24T15:27:18.117Z,14.68
2023-02-24T15:29:56.432Z,16.00
2023-02-24T15:32:26.367Z,17.45
2023-02-24T15:34:53.373Z,17.58
2023-02-24T15:37:29.542Z,12.82
2023-02-24T15:40:20.881Z,18.20
2023-02-24T15:42:57.671Z,16.38
2023-02-24T15:45:26.299Z,14.85
2023-02-24T15:47:56.287Z,14.40
2023-02-24T15:50:23.465Z,18.90
2023-02-24T15:52:50.328Z,24.73
2023-02-24T15:55:22.003Z,13.35
2023-02-24T15:57:57.645Z,16.75
2023-02-24T16:00:24.747Z,14.40
2023-02-24T16:02:51.601Z,18.88
2023-02-24T16:05:18.556Z,17.63
2023-02-24T16:07:46.608Z,18.60
2023-02-24T16:10:25.513Z,22.83
2023-02-24T16:12:58.114Z,26.38
2023-02-24T16:15:32.731Z,23.15
2023-02-24T16:18:02.193Z,27.55
2023-02-24T16:20:35.724Z,22.40
2023-02-24T16:23:05.647Z,20.80
2023-02-24T16:25:38.507Z,18.80
2023-02-24T16:28:05.319Z,16.17
2023-02-24T16:30:32.397Z,22.17
2023-02-24T16:33:00.746Z,19.85
2023-02-24T16:35:28.382Z,21.70
2023-02-24T16:37:55.388Z,14.43
2023-02-24T16:40:24.451Z,23.27
2023-02-24T16:42:52.738Z,15.35
2023-02-24T16:45:25.897Z,12.65
2023-02-24T16:47:55.094Z,15.00
2023-02-24T16:50:32.000Z,15.48
2023-02-24T16:52:59.241Z,12.30
2023-02-24T16:55:26.674Z,9.80
2023-02-24T16:57:53.618Z,11.65
2023-02-24T17:00:24.330Z,13.80
2023-02-24T17:02:52.906Z,13.35
2023-02-24T17:05:25.395Z,12.85
2023-02-24T17:07:54.600Z,14.93
2023-02-24T17:10:22.997Z,18.20
2023-02-24T17:12:50.188Z,15.90
2023-02-24T17:15:22.449Z,14.13
2023-02-24T17:17:49.400Z,17.75
2023-02-24T17:20:18.918Z,17.73
2023-02-24T17:22:46.327Z,10.93
2023-02-24T17:25:22.147Z,9.65
2023-02-24T17:27:49.003Z,14.23
2023-02-24T17:30:19.047Z,14.50
2023-02-24T17:32:46.436Z,20.45
2023-02-24T17:35:13.537Z,15.55
2023-02-24T17:37:40.351Z,15.25
2023-02-24T17:40:08.572Z,16.77
2023-02-24T17:42:35.381Z,10.43
2023-02-24T17:45:02.705Z,17.83
2023-02-24T17:47:31.240Z,18.88
2023-02-24T17:49:58.134Z,16.10
2023-02-24T17:52:25.165Z,12.52
2023-02-24T17:54:52.003Z,12.07
2023-02-24T17:57:19.020Z,14.73
2023-02-24T17:59:46.178Z,14.07
2023-02-24T18:02:14.498Z,14.55
2023-02-24T18:04:41.702Z,10.95
2023-02-24T18:07:10.060Z,25.33
2023-02-24T18:09:37.112Z,19.98
2023-02-24T18:12:04.917Z,15.30
2023-02-24T18:14:31.696Z,9.70
2023-02-24T18:16:58.468Z,16.48
2023-02-24T18:19:25.549Z,12.18
2023-02-24T18:21:52.389Z,13.65
2023-02-24T18:24:19.562Z,12.77
2023-02-24T18:26:46.426Z,19.00
2023-02-24T18:29:13.737Z,12.55
2023-02-24T18:31:40.876Z,10.32
2023-02-24T18:34:07.774Z,17.33
2023-02-24T18:36:35.105Z,14.55
2023-02-24T18:39:01.929Z,17.50
2023-02-24T18:41:28.738Z,19.05
2023-02-24T18:43:57.316Z,15.18
2023-02-24T18:46:25.698Z,18.10
2023-02-24T18:48:53.119Z,12.02
2023-02-24T18:51:22.948Z,18.80
2023-02-24T18:53:52.621Z,23.48
2023-02-24T18:56:23.880Z,18.15
2023-02-24T18:58:52.812Z,19.30
2023-02-24T19:01:26.678Z,21.85
2023-02-24T19:03:57.770Z,13.13
2023-02-24T19:06:27.037Z,13.68
2023-02-24T19:09:01.984Z,17.75
2023-02-24T19:11:29.512Z,10.30
2023-02-24T19:13:57.578Z,16.40
2023-02-24T19:16:25.236Z,15.57
2023-02-24T19:18:53.877Z,18.02
2023-02-24T19:21:20.845Z,15.27
2023-02-24T19:23:48.141Z,23.20
2023-02-24T19:26:26.528Z,16.98
2023-02-24T19:28:54.535Z,18.75
2023-02-24T19:31:24.102Z,13.95
2023-02-24T19:33:56.175Z,16.20
2023-02-24T19:36:24.273Z,16.15
2023-02-24T19:38:51.868Z,15.45
2023-02-24T19:41:18.642Z,19.52
2023-02-24T19:43:45.473Z,13.80
2023-02-24T19:46:14.095Z,12.95
2023-02-24T19:48:41.559Z,17.00
2023-02-24T19:51:12.192Z,18.00
2023-02-24T19:53:39.437Z,14.75
2023-02-24T19:56:06.994Z,16.98
2023-02-24T19:58:35.908Z,13.80
2023-02-24T20:01:13.574Z,14.48
2023-02-24T20:03:42.629Z,15.30
2023-02-24T20:06:22.371Z,17.63
2023-02-24T20:09:10.457Z,24.52
2023-02-24T20:11:39.321Z,16.75
2023-02-24T20:14:07.747Z,16.42
2023-02-24T20:16:37.287Z,21.23
2023-02-24T20:19:05.987Z,21.20
2023-02-24T20:21:33.783Z,15.00
2023-02-24T20:24:03.959Z,22.40
2023-02-24T20:26:31.387Z,17.20
2023-02-24T20:29:00.036Z,21.73
2023-02-24T20:31:27.484Z,17.67
2023-02-24T20:33:54.384Z,20.85
2023-02-24T20:36:24.445Z,21.33
2023-02-24T20:38:52.229Z,18.65
2023-02-24T20:41:21.552Z,15.70
2023-02-24T20:43:49.497Z,20.50
2023-02-24T20:46:24.326Z,18.52
2023-02-24T20:48:53.155Z,30.05
2023-02-24T20:51:20.145Z,25.55
2023-02-24T20:53:56.613Z,24.23
2023-02-24T20:56:25.068Z,20.10
2023-02-24T20:58:53.952Z,24.10
2023-02-24T21:01:21.392Z,22.33
2023-02-24T21:03:50.314Z,17.95
2023-02-24T21:06:17.932Z,18.77
2023-02-24T21:08:45.016Z,21.25
2023-02-24T21:11:13.448Z,18.55
2023-02-24T21:13:42.371Z,16.25
2023-02-24T21:16:10.489Z,20.02
2023-02-24T21:18:39.607Z,25.50
2023-02-24T21:21:07.941Z,21.77
2023-02-24T21:23:35.896Z,28.30
2023-02-24T21:26:02.998Z,27.30
2023-02-24T21:28:29.777Z,22.40
2023-02-24T21:30:56.704Z,25.48
2023-02-24T21:33:23.537Z,24.52
2023-02-24T21:36:00.930Z,24.93
2023-02-24T21:38:27.680Z,29.23
2023-02-24T21:40:54.599Z,26.60
2023-02-24T21:43:21.792Z,32.92
2023-02-24T21:45:48.988Z,25.08
2023-02-24T21:48:15.746Z,27.88
2023-02-24T21:50:42.634Z,26.17
2023-02-24T21:53:09.420Z,33.67
2023-02-24T21:55:38.630Z,25.50
2023-02-24T21:58:06.245Z,35.92
2023-02-24T22:00:33.519Z,24.30
2023-02-24T22:03:00.600Z,26.60
2023-02-24T22:05:27.789Z,27.25
2023-02-24T22:07:55.113Z,30.75
2023-02-24T22:10:23.380Z,32.72
2023-02-24T22:12:50.919Z,27.40
2023-02-24T22:15:18.061Z,26.30
2023-02-24T22:17:44.891Z,25.85
2023-02-24T22:20:13.875Z,28.52
2023-02-24T22:22:42.572Z,31.13
2023-02-24T22:25:11.095Z,26.52
2023-02-24T22:27:38.417Z,25.83
2023-02-24T22:30:07.879Z,33.08
2023-02-24T22:32:36.142Z,30.33
2023-02-24T22:35:03.479Z,28.10
2023-02-24T22:37:30.398Z,22.35
2023-02-24T22:39:57.206Z,34.15
2023-02-24T22:42:24.046Z,25.58
2023-02-24T22:44:50.920Z,29.65
2023-02-24T22:47:17.897Z,22.50
2023-02-24T22:49:44.727Z,27.80
2023-02-24T22:52:11.754Z,32.13
2023-02-24T22:54:38.596Z,26.13
2023-02-24T22:57:05.358Z,22.80
2023-02-24T22:59:32.980Z,22.58
2023-02-24T23:01:59.806Z,22.90
2023-02-24T23:04:29.314Z,30.05
2023-02-24T23:06:57.268Z,27.13
2023-02-24T23:09:24.912Z,27.83
2023-02-24T23:11:51.704Z,23.35
2023-02-24T23:14:18.902Z,20.60
2023-02-24T23:16:48.354Z,23.17
2023-02-24T23:19:17.795Z,24.60
2023-02-24T23:21:50.155Z,25.05
2023-02-24T23:24:18.914Z,22.30
2023-02-24T23:26:54.284Z,19.52
2023-02-24T23:29:23.044Z,19.25
2023-02-24T23:31:50.137Z,20.90
2023-02-24T23:34:17.046Z,19.35
2023-02-24T23:36:46.329Z,33.83
2023-02-24T23:39:17.371Z,20.10
2023-02-24T23:41:44.533Z,21.70
2023-02-24T23:44:12.526Z,20.90
2023-02-24T23:46:39.396Z,21.10
2023-02-24T23:49:06.316Z,16.50
2023-02-24T23:51:50.169Z,22.65
2023-02-24T23:54:18.256Z,15.95
2023-02-24T23:56:46.614Z,16.75
2023-02-24T23:59:14.284Z,14.00
